Time;durP1;ratioP1;P1;durP2;ratioP2;P2;SDS_P1;SDS_P2;PMS_P1;PMS_P2;Temp;Humidity;BMP_temperature;BMP_pressure;BME280_temperature;BME280_humidity;BME280_pressure;Samples;Min_cycle;Max_cycle;Signal;HPM_P1;HPM_P2
2023/03/05 00:01:53;;;;;;;;;;;6.40;74.10;;;6.93;49.15;99021.56;5039716;27;114611;-72
2023/03/05 00:04:20;;;;;;;;;;;6.40;74.10;;;6.93;49.30;99022.41;5056885;27;113789;-71
2023/03/05 00:06:46;;;;;;;;;;;6.40;74.10;;;6.94;49.11;99024.06;5044120;27;123897;-71
2023/03/05 00:09:13;;;;;;;;;;;6.40;74.10;;;6.96;49.06;99023.75;5029050;27;123466;-71
2023/03/05 00:11:39;;;;;;;;;;;6.40;74.10;;;6.97;49.34;99015.25;5047019;27;115096;-71
2023/03/05 00:14:06;;;;;;;;;;;6.40;74.10;;;6.98;49.39;99019.63;5050014;27;113976;-71
2023/03/05 00:16:32;;;;;;;;;;;6.50;74.20;;;6.98;49.60;99022.34;5048215;27;123569;-71
2023/03/05 00:18:59;;;;;;;;;;;6.50;74.20;;;6.99;49.04;99026.78;5049810;27;124801;-71
2023/03/05 00:21:27;;;;;;;;;;;6.50;74.10;;;7.01;49.17;99021.81;5048644;27;115327;-71
2023/03/05 00:23:54;;;;;;;;;;;6.50;74.10;;;7.03;49.24;99013.28;5048185;27;116111;-71
2023/03/05 00:26:23;;;;;;;;;;;6.50;74.10;;;7.03;49.40;99019.59;5046174;27;124722;-71
2023/03/05 00:28:50;;;;;;;;;;;6.50;74.10;;;7.04;49.36;99003.94;5034411;27;123054;-71
2023/03/05 00:31:18;;;;;;;;;;;6.50;74.10;;;7.08;49.17;99016.81;5050443;27;114543;-72
2023/03/05 00:33:45;;;;;;;;;;;6.50;74.10;;;7.08;49.16;99010.50;5046537;27;113558;-71
2023/03/05 00:36:11;;;;;;;;;;;6.60;74.30;;;7.10;49.17;99011.03;5036588;27;123818;-71
2023/03/05 00:38:37;;;;;;;;;;;6.60;74.30;;;7.11;49.24;99007.19;5054009;27;123126;-71
2023/03/05 00:41:04;;;;;;;;;;;6.60;74.30;;;7.12;49.15;99008.00;5045442;27;114452;-71
2023/03/05 00:43:30;;;;;;;;;;;6.60;74.30;;;7.13;49.61;99009.66;5048064;27;113884;-71
2023/03/05 00:45:57;;;;;;;;;;;6.60;74.30;;;7.14;49.10;99014.03;5047226;27;124074;-71
2023/03/05 00:48:24;;;;;;;;;;;6.60;74.30;;;7.15;49.18;99007.47;5049293;27;123933;-71
2023/03/05 00:50:51;;;;;;;;;;;6.60;74.30;;;7.16;49.39;99007.16;5048633;27;115150;-70
2023/03/05 00:53:18;;;;;;;;;;;6.60;74.30;;;7.18;49.30;99004.94;5043986;27;113654;-70
2023/03/05 00:55:44;;;;;;;;;;;6.60;74.20;;;7.18;49.34;98991.22;5048790;27;125023;-70
2023/03/05 00:58:11;;;;;;;;;;;6.60;74.20;;;7.18;48.86;98996.72;5048223;27;124764;-71
2023/03/05 01:00:37;;;;;;;;;;;6.60;74.20;;;7.18;49.27;99004.13;5048885;27;114086;-71
2023/03/05 01:03:03;;;;;;;;;;;6.60;74.20;;;7.19;48.98;98987.34;5042957;27;113559;-71
2023/03/05 01:05:30;;;;;;;;;;;6.60;74.30;;;7.21;49.32;98989.81;5052766;27;124636;-71
2023/03/05 01:07:56;;;;;;;;;;;6.60;74.30;;;7.20;49.37;98990.91;5053413;27;123150;-71
2023/03/05 01:10:26;;;;;;;;;;;6.70;74.30;;;7.21;49.35;98981.56;5052751;27;114753;-71
2023/03/05 01:12:53;;;;;;;;;;;6.70;74.30;;;7.22;49.16;98983.22;5051755;27;115563;-72
2023/03/05 01:15:21;;;;;;;;;;;6.70;74.40;;;7.22;49.23;98986.78;5043170;27;124715;-71
2023/03/05 01:17:47;;;;;;;;;;;6.70;74.40;;;7.24;49.52;98975.50;5046154;27;126402;-71
2023/03/05 01:20:15;;;;;;;;;;;6.70;74.40;;;7.25;49.17;98974.38;5049738;27;115043;-71
2023/03/05 01:22:41;;;;;;;;;;;6.70;74.40;;;7.24;49.31;98979.06;5051786;27;113426;-71
2023/03/05 01:25:08;;;;;;;;;;;6.70;74.40;;;7.25;49.19;98966.13;5050973;27;123565;-71
2023/03/05 01:27:34;;;;;;;;;;;6.70;74.40;;;7.22;49.60;98974.97;5046759;27;124022;-71
2023/03/05 01:30:01;;;;;;;;;;;6.70;74.50;;;7.21;48.86;98965.09;5048584;27;113903;-71
2023/03/05 01:32:27;;;;;;;;;;;6.70;74.50;;;7.20;49.17;98957.94;5061946;27;114093;-71
2023/03/05 01:34:53;;;;;;;;;;;6.70;74.50;;;7.20;49.57;98963.44;5048980;27;124375;-71
2023/03/05 01:37:19;;;;;;;;;;;6.70;74.50;;;7.23;49.24;98957.38;5049989;27;123883;-71
2023/03/05 01:39:46;;;;;;;;;;;6.70;74.50;;;7.23;49.15;98952.72;5049718;27;114384;-70
2023/03/05 01:42:12;;;;;;;;;;;6.70;74.60;;;7.23;49.02;98951.88;5050758;27;114103;-71
2023/03/05 01:44:38;;;;;;;;;;;6.70;74.50;;;7.23;49.49;98954.63;5049765;27;124040;-70
2023/03/05 01:47:05;;;;;;;;;;;6.70;74.60;;;7.23;49.13;98947.22;5041433;27;124267;-71
2023/03/05 01:49:37;;;;;;;;;;;6.70;74.50;;;7.21;49.29;98951.34;5050554;27;114445;-70
2023/03/05 01:52:10;;;;;;;;;;;6.70;74.50;;;7.19;49.57;98942.56;5038528;27;113615;-71
2023/03/05 01:54:49;;;;;;;;;;;6.70;74.60;;;7.19;49.57;98945.31;5031465;27;123585;-71
2023/03/05 01:57:57;;;;;;;;;;;6.70;74.60;;;7.20;49.59;98935.94;5049919;27;123879;-71
2023/03/05 02:00:27;;;;;;;;;;;6.70;74.60;;;7.15;49.75;98934.09;4991968;28;113932;-71
2023/03/05 02:02:54;;;;;;;;;;;6.70;74.70;;;7.17;49.74;98936.53;5030172;27;113771;-71
2023/03/05 02:05:26;;;;;;;;;;;6.60;74.60;;;7.16;49.56;98930.22;5043386;27;123478;-71
2023/03/05 02:07:57;;;;;;;;;;;6.60;74.60;;;7.17;49.42;98923.59;5047652;27;124594;-71
2023/03/05 02:10:27;;;;;;;;;;;6.70;74.70;;;7.18;49.44;98918.94;5051389;27;113891;-70
2023/03/05 02:12:55;;;;;;;;;;;6.70;74.80;;;7.18;49.66;98916.19;5031894;27;112995;-71
2023/03/05 02:15:21;;;;;;;;;;;6.70;74.80;;;7.17;49.92;98917.28;5038325;27;124035;-72
2023/03/05 02:17:48;;;;;;;;;;;6.70;75.00;;;7.18;50.02;98916.19;5050466;27;123959;-76
2023/03/05 02:20:24;;;;;;;;;;;6.70;75.10;;;7.21;49.51;98905.44;5039842;27;114693;-71
2023/03/05 02:22:51;;;;;;;;;;;6.70;75.10;;;7.19;49.81;98910.41;5049490;27;113622;-71
2023/03/05 02:25:21;;;;;;;;;;;6.70;75.20;;;7.19;49.97;98906.84;5043676;27;123386;-71
2023/03/05 02:28:02;;;;;;;;;;;6.70;75.20;;;7.20;49.97;98900.22;5048620;27;123772;-72
2023/03/05 02:30:30;;;;;;;;;;;6.60;75.20;;;7.17;49.92;98909.88;5047616;27;113444;-73
2023/03/05 02:32:57;;;;;;;;;;;6.60;75.30;;;7.19;49.84;98909.59;5047684;27;112953;-74
2023/03/05 02:35:24;;;;;;;;;;;6.70;75.40;;;7.19;50.44;98907.66;5041814;27;124245;-74
2023/03/05 02:37:51;;;;;;;;;;;6.70;75.50;;;7.21;50.07;98901.88;5046318;27;124036;-74
2023/03/05 02:40:17;;;;;;;;;;;6.70;75.60;;;7.22;50.64;98900.78;5047821;27;114086;-73
2023/03/05 02:42:45;;;;;;;;;;;6.70;75.70;;;7.24;50.37;98898.56;5053008;27;113989;-72
2023/03/05 02:45:12;;;;;;;;;;;6.70;75.90;;;7.23;50.56;98891.44;5040357;27;124287;-72
2023/03/05 02:47:38;;;;;;;;;;;6.70;75.90;;;7.24;50.38;98887.56;5043375;27;124551;-72
2023/03/05 02:50:05;;;;;;;;;;;6.70;76.00;;;7.23;50.61;98891.44;5041475;27;117961;-72
2023/03/05 02:52:31;;;;;;;;;;;6.70;76.10;;;7.24;50.78;98882.06;5050676;27;114928;-72
2023/03/05 02:54:59;;;;;;;;;;;6.70;76.20;;;7.25;50.38;98878.19;5060826;27;124711;-72
2023/03/05 02:57:25;;;;;;;;;;;6.70;76.20;;;7.27;50.70;98887.00;5042731;27;123918;-72
2023/03/05 02:59:53;;;;;;;;;;;6.70;76.30;;;7.27;50.81;98882.31;5064313;27;114527;-72
2023/03/05 03:02:20;;;;;;;;;;;6.70;76.30;;;7.28;50.55;98880.38;5048779;27;112940;-72
2023/03/05 03:04:47;;;;;;;;;;;6.70;76.30;;;7.28;50.56;98872.13;5048323;27;123938;-75
2023/03/05 03:07:14;;;;;;;;;;;6.70;76.40;;;7.29;50.59;98882.03;5049936;27;124124;-74
2023/03/05 03:09:41;;;;;;;;;;;6.80;76.50;;;7.29;50.67;98869.09;5052038;27;113908;-73
2023/03/05 03:12:08;;;;;;;;;;;6.80;76.50;;;7.29;50.53;98874.59;5040537;27;114856;-74
2023/03/05 03:14:38;;;;;;;;;;;6.80;76.50;;;7.28;50.84;98870.22;5042838;27;122998;-72
2023/03/05 03:17:06;;;;;;;;;;;6.80;76.70;;;7.27;50.96;98867.75;5049584;27;123992;-71
2023/03/05 03:19:32;;;;;;;;;;;6.70;76.60;;;7.25;50.83;98868.06;5033317;27;113520;-71
2023/03/05 03:21:58;;;;;;;;;;;6.70;76.70;;;7.23;51.15;98864.78;5048249;27;112981;-72
2023/03/05 03:24:25;;;;;;;;;;;6.70;77.00;;;7.21;51.32;98866.16;5046104;27;123975;-72
2023/03/05 03:26:51;;;;;;;;;;;6.70;77.10;;;7.20;51.73;98856.25;5049233;27;124129;-71
2023/03/05 03:29:17;;;;;;;;;;;6.70;77.20;;;7.19;51.69;98860.13;5049884;27;113660;-72
2023/03/05 03:31:44;;;;;;;;;;;6.70;77.40;;;7.17;51.42;98870.59;5052180;27;113917;-72
2023/03/05 03:34:14;;;;;;;;;;;6.70;77.50;;;7.14;51.63;98858.25;5047186;27;124419;-72
2023/03/05 03:36:42;;;;;;;;;;;6.60;77.60;;;7.15;51.51;98856.34;5036215;27;123005;-71
2023/03/05 03:39:12;;;;;;;;;;;6.60;77.80;;;7.13;52.22;98851.13;5050416;27;115522;-72
2023/03/05 03:41:43;;;;;;;;;;;6.60;77.90;;;7.14;51.93;98846.44;5040238;27;114500;-71
2023/03/05 03:44:10;;;;;;;;;;;6.60;78.10;;;7.08;52.09;98842.91;5046535;27;124559;-72
2023/03/05 03:46:37;;;;;;;;;;;6.60;78.20;;;7.05;52.48;98844.31;5051811;27;124128;-71
2023/03/05 03:49:04;;;;;;;;;;;6.60;78.50;;;7.07;52.33;98844.03;5051632;27;113989;-72
2023/03/05 03:51:31;;;;;;;;;;;6.60;78.70;;;7.07;52.38;98833.88;5053475;27;113325;-72
2023/03/05 03:53:58;;;;;;;;;;;6.60;78.80;;;7.06;52.50;98837.69;5040692;27;124097;-72
2023/03/05 03:56:24;;;;;;;;;;;6.60;78.90;;;7.06;52.83;98834.94;5051927;27;125270;-72
2023/03/05 03:58:51;;;;;;;;;;;6.60;79.00;;;7.07;52.84;98838.53;5042979;27;114220;-72
2023/03/05 04:01:19;;;;;;;;;;;6.60;79.00;;;7.06;52.87;98828.66;5050245;27;113665;-72
2023/03/05 04:03:45;;;;;;;;;;;6.60;79.10;;;7.06;52.52;98825.91;5052230;27;124168;-72
2023/03/05 04:06:12;;;;;;;;;;;6.60;79.20;;;7.07;53.13;98822.88;5051916;27;123861;-72
2023/03/05 04:08:39;;;;;;;;;;;6.60;79.40;;;7.06;53.11;98826.72;5052443;27;113142;-72
2023/03/05 04:11:05;;;;;;;;;;;6.60;79.30;;;7.07;52.57;98830.31;5047000;27;114768;-72
2023/03/05 04:13:32;;;;;;;;;;;6.60;79.40;;;7.06;52.33;98823.16;5051399;27;124383;-72
2023/03/05 04:15:58;;;;;;;;;;;6.50;79.40;;;7.05;52.51;98822.34;5043952;27;124142;-72
2023/03/05 04:18:24;;;;;;;;;;;6.60;79.50;;;7.05;52.71;98827.84;5049094;27;114401;-71
2023/03/05 04:20:50;;;;;;;;;;;6.60;79.60;;;7.05;52.91;98824.28;5041653;27;113216;-72
2023/03/05 04:23:17;;;;;;;;;;;6.50;79.60;;;7.05;53.06;98822.34;5043781;27;124357;-71
2023/03/05 04:25:43;;;;;;;;;;;6.50;79.60;;;7.03;52.86;98815.50;5067483;27;122903;-71
2023/03/05 04:28:10;;;;;;;;;;;6.50;79.60;;;7.00;52.93;98825.13;5049844;27;115127;-71
2023/03/05 04:30:36;;;;;;;;;;;6.50;79.50;;;6.98;53.24;98812.78;5054770;27;114882;-72
2023/03/05 04:33:03;;;;;;;;;;;6.50;79.60;;;6.97;52.67;98808.41;5050527;27;123143;-71
2023/03/05 04:35:29;;;;;;;;;;;6.50;79.60;;;6.92;52.67;98809.28;5051455;27;124051;-71
2023/03/05 04:37:56;;;;;;;;;;;6.50;79.60;;;6.90;52.87;98807.91;5044303;27;114370;-72
2023/03/05 04:40:22;;;;;;;;;;;6.50;79.60;;;6.90;52.96;98816.16;5045379;27;113674;-72
2023/03/05 04:42:49;;;;;;;;;;;6.40;79.50;;;6.89;53.41;98804.34;5051278;27;124240;-72
2023/03/05 04:45:16;;;;;;;;;;;6.40;79.60;;;6.91;53.07;98801.34;5051774;27;123460;-72
2023/03/05 04:47:42;;;;;;;;;;;6.40;79.60;;;6.92;53.21;98806.53;5049667;27;115447;-75
2023/03/05 04:50:10;;;;;;;;;;;6.40;79.70;;;6.91;53.24;98807.63;5051399;27;113952;-72
2023/03/05 04:52:40;;;;;;;;;;;6.40;79.80;;;6.90;53.25;98803.25;5050990;27;123916;-72
2023/03/05 04:55:07;;;;;;;;;;;6.40;79.70;;;6.90;53.07;98800.50;5046991;27;124177;-71
2023/03/05 04:57:34;;;;;;;;;;;6.40;79.70;;;6.93;52.81;98799.09;5047355;27;114183;-72
2023/03/05 05:00:04;;;;;;;;;;;6.40;79.70;;;6.91;52.75;98810.38;5049424;27;114339;-71
2023/03/05 05:02:30;;;;;;;;;;;6.40;79.60;;;6.90;53.10;98802.44;5049634;27;124121;-72
2023/03/05 05:04:56;;;;;;;;;;;6.40;79.60;;;6.91;52.72;98799.41;5053117;27;123832;-72
2023/03/05 05:07:22;;;;;;;;;;;6.40;79.60;;;6.90;52.71;98800.50;5050588;27;114432;-71
2023/03/05 05:09:49;;;;;;;;;;;6.50;79.70;;;6.90;52.81;98788.69;5051151;27;112815;-71
2023/03/05 05:12:15;;;;;;;;;;;6.40;79.60;;;6.87;52.99;98790.09;5051920;27;124159;-71
2023/03/05 05:14:41;;;;;;;;;;;6.40;79.60;;;6.85;53.01;98784.06;5050131;27;123324;-72
2023/03/05 05:17:08;;;;;;;;;;;6.40;79.70;;;6.89;52.79;98796.13;5062036;27;114975;-71
2023/03/05 05:19:34;;;;;;;;;;;6.40;79.70;;;6.89;52.63;98787.06;5051237;27;115033;-72
2023/03/05 05:22:01;;;;;;;;;;;6.40;79.70;;;6.87;53.19;98790.09;5041045;27;124550;-71
2023/03/05 05:24:27;;;;;;;;;;;6.40;79.70;;;6.85;52.70;98789.53;5049015;27;123662;-71
2023/03/05 05:26:54;;;;;;;;;;;6.40;79.70;;;6.81;53.05;98792.06;5053682;27;114262;-72
2023/03/05 05:29:21;;;;;;;;;;;6.30;79.60;;;6.80;53.26;98787.69;5050057;27;113877;-72
2023/03/05 05:31:47;;;;;;;;;;;6.30;79.60;;;6.79;52.85;98788.78;5044079;27;124895;-72
2023/03/05 05:34:14;;;;;;;;;;;6.30;79.70;;;6.78;53.53;98791.81;5049974;27;124620;-71
2023/03/05 05:36:41;;;;;;;;;;;6.30;79.80;;;6.78;53.04;98787.16;5046383;27;114203;-71
2023/03/05 05:39:09;;;;;;;;;;;6.30;79.90;;;6.77;52.80;98791.00;5032818;27;113711;-71
2023/03/05 05:41:36;;;;;;;;;;;6.30;79.90;;;6.78;52.87;98789.09;5049063;27;125248;-71
2023/03/05 05:44:02;;;;;;;;;;;6.30;79.90;;;6.75;52.77;98792.41;5038394;27;123886;-71
2023/03/05 05:46:28;;;;;;;;;;;6.30;80.00;;;6.71;53.51;98786.66;5047342;27;114533;-71
2023/03/05 05:48:55;;;;;;;;;;;6.20;79.90;;;6.70;53.59;98789.69;5051752;27;113508;-72
2023/03/05 05:51:22;;;;;;;;;;;6.20;79.90;;;6.69;53.16;98783.41;5048124;27;124559;-71
2023/03/05 05:53:48;;;;;;;;;;;6.20;79.90;;;6.68;52.83;98789.97;5033701;27;122900;-71
2023/03/05 05:56:18;;;;;;;;;;;6.20;80.00;;;6.69;53.20;98782.56;5044728;27;114284;-71
2023/03/05 05:58:46;;;;;;;;;;;6.20;80.00;;;6.71;53.09;98791.31;5033995;27;113741;-71
2023/03/05 06:01:17;;;;;;;;;;;6.20;80.10;;;6.72;53.30;98790.25;5037153;27;124116;-71
2023/03/05 06:03:44;;;;;;;;;;;6.20;80.10;;;6.71;53.37;98786.66;5043625;27;124113;-71
2023/03/05 06:06:11;;;;;;;;;;;6.20;80.00;;;6.70;52.96;98789.69;5047145;27;115356;-71
2023/03/05 06:08:39;;;;;;;;;;;6.20;80.00;;;6.69;53.57;98788.03;5051767;27;114227;-71
2023/03/05 06:11:05;;;;;;;;;;;6.20;80.00;;;6.67;53.61;98791.09;5052739;27;123495;-71
2023/03/05 06:13:33;;;;;;;;;;;6.20;80.10;;;6.64;52.96;98787.00;5048683;27;123992;-75
2023/03/05 06:16:02;;;;;;;;;;;6.20;80.10;;;6.62;53.45;98794.69;5043139;27;115296;-71
2023/03/05 06:18:30;;;;;;;;;;;6.10;80.20;;;6.62;53.74;98786.47;5051323;27;113498;-71
2023/03/05 06:21:01;;;;;;;;;;;6.10;80.20;;;6.63;52.93;98785.34;5041565;27;124426;-71
2023/03/05 06:23:28;;;;;;;;;;;6.10;80.20;;;6.61;53.26;98792.25;5032972;27;123251;-71
2023/03/05 06:25:58;;;;;;;;;;;6.10;80.20;;;6.60;52.80;98783.16;5042009;27;116590;-71
2023/03/05 06:28:24;;;;;;;;;;;6.10;80.10;;;6.58;53.49;98785.41;5037670;27;113214;-71
2023/03/05 06:31:00;;;;;;;;;;;6.10;80.20;;;6.58;52.96;98782.66;5017601;27;123062;-71
2023/03/05 06:33:27;;;;;;;;;;;6.10;80.20;;;6.56;53.82;98787.59;5057733;27;123829;-71
2023/03/05 06:35:53;;;;;;;;;;;6.10;80.30;;;6.55;52.95;98788.69;5044574;27;114711;-71
2023/03/05 06:38:21;;;;;;;;;;;6.10;80.30;;;6.55;53.40;98785.94;5044027;27;113375;-71
2023/03/05 06:40:47;;;;;;;;;;;6.10;80.40;;;6.57;53.30;98782.94;5038313;27;124120;-71
2023/03/05 06:43:13;;;;;;;;;;;6.10;80.40;;;6.59;53.08;98777.97;5040095;27;123793;-70
2023/03/05 06:45:40;;;;;;;;;;;6.10;80.40;;;6.61;53.60;98782.09;5054273;27;114190;-72
2023/03/05 06:48:07;;;;;;;;;;;6.10;80.50;;;6.62;53.15;98786.47;5040151;27;113176;-71
2023/03/05 06:50:35;;;;;;;;;;;7.80;81.90;;;6.61;53.33;98775.78;5033282;27;124104;-71
2023/03/05 06:53:01;;;;;;;;;;;6.10;80.40;;;6.57;53.41;98781.00;5027269;27;123393;-72
2023/03/05 06:55:28;;;;;;;;;;;4.50;79.00;;;6.56;53.59;98782.13;5043338;27;113392;-71
2023/03/05 06:57:55;;;;;;;;;;;6.10;80.40;;;6.56;53.30;98778.56;5045138;27;114368;-71
2023/03/05 07:00:23;;;;;;;;;;;6.10;80.40;;;6.56;53.29;98773.88;5047536;27;124475;-71
2023/03/05 07:02:49;;;;;;;;;;;6.10;80.50;;;6.58;53.47;98776.31;5044637;27;123821;-71
2023/03/05 07:05:16;;;;;;;;;;;6.10;80.60;;;6.60;53.29;98777.69;5048023;27;114193;-71
2023/03/05 07:07:42;;;;;;;;;;;6.10;80.60;;;6.62;53.77;98782.91;5036165;27;113467;-71
2023/03/05 07:10:09;;;;;;;;;;;6.10;80.50;;;6.65;53.67;98779.56;5043226;27;124319;-71
2023/03/05 07:12:37;;;;;;;;;;;6.10;80.50;;;6.67;53.06;98774.63;5051721;27;123823;-71
2023/03/05 07:15:04;;;;;;;;;;;6.20;80.60;;;6.70;53.75;98778.72;5048077;27;114506;-72
2023/03/05 07:17:30;;;;;;;;;;;6.20;81.00;;;6.70;52.83;98770.47;5052104;27;113749;-71
2023/03/05 07:19:56;;;;;;;;;;;6.20;80.50;;;6.71;52.92;98774.84;5046495;27;123400;-75
2023/03/05 07:22:23;;;;;;;;;;;6.20;80.50;;;6.71;52.77;98777.59;5047207;27;124026;-71
2023/03/05 07:24:49;;;;;;;;;;;6.20;80.40;;;6.71;53.32;98769.38;5039854;27;113426;-71
2023/03/05 07:27:16;;;;;;;;;;;6.20;80.40;;;6.71;53.26;98770.19;5048859;27;114190;-71
2023/03/05 07:29:42;;;;;;;;;;;6.20;80.40;;;6.73;53.54;98778.13;5049413;27;122531;-71
2023/03/05 07:32:08;;;;;;;;;;;6.20;80.30;;;6.70;53.26;98770.47;5047228;27;124353;-71
2023/03/05 07:34:36;;;;;;;;;;;6.20;80.30;;;6.68;53.43;98769.94;5047825;27;114118;-71
2023/03/05 07:37:05;;;;;;;;;;;6.20;80.40;;;6.68;53.16;98767.19;5033465;27;112934;-71
2023/03/05 07:39:32;;;;;;;;;;;6.20;80.50;;;6.69;52.99;98771.56;5047058;27;124962;-71
2023/03/05 07:41:58;;;;;;;;;;;6.20;80.40;;;6.69;53.24;98761.44;5041609;27;124495;-71
2023/03/05 07:44:24;;;;;;;;;;;7.80;81.90;;;6.71;53.23;98764.69;5046240;27;115279;-71
2023/03/05 07:46:50;;;;;;;;;;;6.20;80.40;;;6.72;53.26;98766.34;5044362;27;113549;-71
2023/03/05 07:49:17;;;;;;;;;;;6.20;80.40;;;6.74;53.31;98758.63;5043115;27;124478;-70
2023/03/05 07:51:43;;;;;;;;;;;6.20;80.40;;;6.78;53.06;98764.38;5025139;27;123229;-71
2023/03/05 07:54:09;;;;;;;;;;;6.30;80.40;;;6.81;53.06;98763.78;5051418;27;114724;-71
2023/03/05 07:56:36;;;;;;;;;;;6.30;80.40;;;6.81;53.01;98761.03;5050624;27;113252;-71
2023/03/05 07:59:08;;;;;;;;;;;6.30;80.40;;;6.83;53.00;98761.59;5043478;27;124109;-71
2023/03/05 08:01:34;;;;;;;;;;;6.30;80.30;;;6.85;52.69;98770.31;5063742;27;124541;-70
2023/03/05 08:04:01;;;;;;;;;;;6.30;80.30;;;6.87;53.00;98759.88;5044459;27;113220;-71
2023/03/05 08:06:28;;;;;;;;;;;6.30;80.30;;;6.88;52.70;98763.44;5046966;27;113903;-71
2023/03/05 08:08:54;;;;;;;;;;;6.40;80.30;;;6.89;52.60;98756.84;5035076;27;124130;-73
2023/03/05 08:11:20;;;;;;;;;;;6.40;80.20;;;6.86;52.94;98756.31;5045161;27;124481;-71
2023/03/05 08:13:47;;;;;;;;;;;6.40;80.30;;;6.86;52.44;98763.75;5052022;27;114758;-72
2023/03/05 08:16:15;;;;;;;;;;;6.30;80.20;;;6.87;52.90;98762.63;5055154;27;114478;-75
2023/03/05 08:18:42;;;;;;;;;;;6.40;80.20;;;6.90;52.20;98755.72;5039468;27;124066;-71
2023/03/05 08:21:38;;;;;;;;;;;6.40;80.20;;;6.90;52.81;98755.72;5051180;27;124016;-71
2023/03/05 08:24:06;;;;;;;;;;;6.40;80.10;;;6.82;52.72;98763.50;5022132;27;114408;-71
2023/03/05 08:26:36;;;;;;;;;;;6.30;80.00;;;6.79;52.58;98752.28;5049924;27;113854;-71
2023/03/05 08:29:03;;;;;;;;;;;6.30;80.00;;;6.80;52.91;98756.66;5048790;27;124533;-71
2023/03/05 08:31:30;;;;;;;;;;;6.30;80.00;;;6.83;52.95;98756.09;5068637;27;123092;-71
2023/03/05 08:33:58;;;;;;;;;;;6.30;80.20;;;6.88;53.03;98761.53;5041412;27;115426;-71
2023/03/05 08:36:25;;;;;;;;;;;6.40;80.30;;;6.90;52.68;98748.31;5044281;27;114833;-71
2023/03/05 08:38:52;;;;;;;;;;;6.40;80.20;;;6.93;52.72;98753.25;5047910;27;123066;-71
2023/03/05 08:41:18;;;;;;;;;;;6.40;80.20;;;6.93;52.53;98742.25;5041010;27;123871;-71
2023/03/05 08:43:45;;;;;;;;;;;6.40;80.10;;;6.91;52.38;98741.72;5044729;27;114438;-71
2023/03/05 08:46:12;;;;;;;;;;;6.40;80.00;;;6.92;52.43;98753.53;5054110;27;113461;-71
2023/03/05 08:48:38;;;;;;;;;;;6.40;80.00;;;6.93;52.87;98736.78;5040606;27;124247;-71
2023/03/05 08:51:24;;;;;;;;;;;6.40;80.00;;;6.98;52.47;98747.69;5043301;27;124555;-71
2023/03/05 08:53:52;;;;;;;;;;;6.40;79.90;;;6.98;52.04;98738.63;5045998;27;113701;-70
2023/03/05 08:56:18;;;;;;;;;;;6.50;79.90;;;7.00;52.07;98741.91;5035848;27;113031;-75
2023/03/05 08:58:47;;;;;;;;;;;6.50;79.80;;;7.01;51.98;98738.88;5048798;27;123629;-71
2023/03/05 09:01:14;;;;;;;;;;;6.50;79.80;;;7.02;52.31;98736.94;5049618;27;123975;-71
2023/03/05 09:03:40;;;;;;;;;;;6.50;79.70;;;7.03;52.30;98738.56;5047620;27;114294;-71
2023/03/05 09:06:09;;;;;;;;;;;6.60;79.70;;;7.06;51.96;98740.75;5049361;27;113963;-73
2023/03/05 09:08:35;;;;;;;;;;;6.50;79.60;;;7.08;52.23;98736.59;5028583;27;123245;-71
2023/03/05 09:11:03;;;;;;;;;;;6.60;79.70;;;7.13;52.57;98726.66;5046103;27;125652;-71
2023/03/05 09:13:29;;;;;;;;;;;6.60;79.70;;;7.16;52.06;98731.56;5050403;27;114581;-73
2023/03/05 09:15:57;;;;;;;;;;;6.60;79.60;;;7.18;51.85;98734.84;5051007;27;113438;-71
2023/03/05 09:18:24;;;;;;;;;;;6.60;79.60;;;7.21;51.76;98729.59;5042762;27;124770;-69
2023/03/05 09:20:51;;;;;;;;;;;6.70;79.70;;;7.24;52.23;98722.69;5048404;27;124055;-70
2023/03/05 09:23:18;;;;;;;;;;;6.70;79.70;;;7.29;52.01;98726.19;5049147;27;115335;-70
2023/03/05 09:25:44;;;;;;;;;;;6.70;79.70;;;7.32;52.13;98719.28;5043348;27;115875;-70
2023/03/05 09:28:11;;;;;;;;;;;6.80;79.60;;;7.33;51.52;98718.19;5047020;27;124186;-70
2023/03/05 09:30:37;;;;;;;;;;;6.80;79.40;;;7.35;51.66;98715.97;5050002;27;123982;-70
2023/03/05 09:33:03;;;;;;;;;;;6.80;79.30;;;7.38;51.49;98711.81;5048512;27;116301;-70
2023/03/05 09:35:33;;;;;;;;;;;6.80;79.30;;;7.38;51.67;98712.63;5050436;27;113662;-71
2023/03/05 09:38:00;;;;;;;;;;;6.80;79.30;;;7.42;51.47;98710.13;5051174;27;124292;-70
2023/03/05 09:40:30;;;;;;;;;;;6.90;79.40;;;7.46;51.80;98705.66;5051654;27;123432;-71
2023/03/05 09:43:20;;;;;;;;;;;8.30;80.50;;;7.50;51.57;98717.72;5048737;27;114342;-71
2023/03/05 09:46:18;;;;;;;;;;;6.90;79.10;;;7.49;51.45;98714.13;5048513;27;116401;-74
2023/03/05 09:49:04;;;;;;;;;;;6.90;78.90;;;7.46;51.57;98700.16;5006477;27;124325;-71
2023/03/05 09:51:35;;;;;;;;;;;6.90;78.80;;;7.48;51.40;98700.69;5045216;27;124590;-71
2023/03/05 09:54:24;;;;;;;;;;;7.00;78.90;;;7.52;50.94;98708.06;5047372;27;114867;-71
2023/03/05 09:56:57;;;;;;;;;;;7.00;78.70;;;7.52;50.93;98690.72;5052128;27;113891;-71
2023/03/05 09:59:34;;;;;;;;;;;7.00;78.50;;;7.51;50.88;98694.59;5033232;27;124371;-73
2023/03/05 10:02:13;;;;;;;;;;;7.00;78.40;;;7.48;51.05;98690.50;5066889;27;124555;-72
2023/03/05 10:05:03;;;;;;;;;;;7.00;78.30;;;7.52;51.02;98697.06;5048936;27;114639;-73
2023/03/05 10:07:31;;;;;;;;;;;7.00;78.40;;;7.56;51.16;98688.22;5016177;27;113861;-73
2023/03/05 10:10:30;;;;;;;;;;;7.10;78.50;;;7.59;50.97;98679.38;5051335;27;126539;-73
2023/03/05 10:13:00;;;;;;;;;;;7.10;78.20;;;7.58;50.81;98688.75;5041737;27;124145;-73
2023/03/05 10:15:40;;;;;;;;;;;7.00;78.00;;;7.62;50.74;98678.78;5066855;27;114841;-72
2023/03/05 10:18:32;;;;;;;;;;;7.10;78.70;;;7.65;50.49;98689.19;5048246;27;115268;-72
2023/03/05 10:21:01;;;;;;;;;;;7.10;77.90;;;7.65;50.63;98690.00;5049544;27;124159;-74
2023/03/05 10:23:54;;;;;;;;;;;7.10;77.80;;;7.69;50.47;98682.00;5046948;27;123789;-73
2023/03/05 10:26:23;;;;;;;;;;;7.20;77.80;;;7.71;50.54;98677.84;5045021;27;115095;-73
2023/03/05 10:28:58;;;;;;;;;;;7.20;77.70;;;7.73;50.30;98678.34;5039364;27;112840;-72
2023/03/05 10:31:49;;;;;;;;;;;7.20;77.50;;;7.75;50.11;98683.56;5049439;27;124635;-74
2023/03/05 10:34:36;;;;;;;;;;;7.20;77.40;;;7.75;50.11;98675.31;5045819;27;124546;-74
2023/03/05 10:37:11;;;;;;;;;;;7.30;77.30;;;7.77;50.11;98659.34;5046064;27;116259;-72
2023/03/05 10:40:15;;;;;;;;;;;7.30;77.20;;;7.83;50.22;98663.63;5040070;27;114117;-74
2023/03/05 10:42:50;;;;;;;;;;;7.30;77.20;;;7.85;50.12;98653.16;5041245;27;124235;-73
2023/03/05 10:45:29;;;;;;;;;;;7.30;77.20;;;7.90;50.44;98650.34;5048170;27;124146;-75
2023/03/05 10:48:22;;;;;;;;;;;7.40;77.90;;;7.94;50.52;98650.53;5047659;27;113849;-74
2023/03/05 10:50:51;;;;;;;;;;;7.40;77.90;;;7.97;50.54;98655.44;5045353;27;114320;-74
2023/03/05 10:53:30;;;;;;;;;;;7.40;78.10;;;7.99;50.45;98652.41;5045608;27;124758;-75
2023/03/05 10:56:00;;;;;;;;;;;7.40;77.80;;;8.00;50.48;98643.84;5046317;27;123793;-74
2023/03/05 10:58:27;;;;;;;;;;;7.40;77.80;;;8.06;50.43;98650.06;5047953;27;114820;-73
2023/03/05 11:00:57;;;;;;;;;;;7.50;78.20;;;8.10;50.04;98634.59;5048966;27;114269;-73
2023/03/05 11:03:23;;;;;;;;;;;7.50;77.80;;;8.08;49.99;98634.91;5049520;27;123297;-74
2023/03/05 11:05:58;;;;;;;;;;;7.50;77.30;;;8.06;50.00;98634.41;5047051;27;123829;-74
2023/03/05 11:08:28;;;;;;;;;;;7.50;77.20;;;8.06;50.13;98622.56;5038083;27;115566;-74
2023/03/05 11:11:13;;;;;;;;;;;7.50;77.30;;;8.09;49.88;98630.22;5043564;27;114884;-72
2023/03/05 11:13:57;;;;;;;;;;;7.50;77.20;;;8.10;49.90;98629.09;5047115;27;124779;-73
2023/03/05 11:16:29;;;;;;;;;;;7.60;77.30;;;8.08;49.62;98623.06;5050708;27;122851;-73
2023/03/05 11:19:16;;;;;;;;;;;7.60;77.10;;;8.01;49.88;98619.91;5049439;27;114174;-72
2023/03/05 11:21:44;;;;;;;;;;;7.50;77.10;;;7.93;50.04;98624.97;5042331;27;114345;-74
2023/03/05 11:24:18;;;;;;;;;;;7.40;77.00;;;7.91;50.07;98627.19;5042624;27;123565;-77
2023/03/05 11:26:52;;;;;;;;;;;8.70;78.30;;;7.87;50.21;98615.16;5038928;27;124445;-73
2023/03/05 11:29:24;;;;;;;;;;;7.40;77.10;;;7.84;50.21;98615.75;5061626;27;113487;-73
2023/03/05 11:31:51;;;;;;;;;;;7.40;77.20;;;7.83;49.97;98614.13;5051525;27;113489;-73
2023/03/05 11:34:17;;;;;;;;;;;7.30;77.20;;;7.83;50.05;98605.88;5064130;27;123608;-72